Rutherford, Tennessee
Current Conditions -  °F | °C
As of 12:15 PM on Tuesday 21 Oct 2014 (Local Time) from KUCY Reporting Station
Clear Clear  
Wind Chill: 70°   Ceiling: Unl
Heat Index: 70°   Visibility: 7mi
Dew Point: 46°   Wind: 9mph
Humidity: 43%   Direction: 300°WNW
Pressure: 30.09"   Gusts: NA
Location:  36.13°N, 88.99°W
Report Text: KUCY 211715Z AUTO 30008KT 7SM CLR 21/08 A3009 RMK
Loading
Personal Weather Stations






























Interactive Weather Map
Tropical Storm Tracking
New forecast layout! Learn more

10-Day Weather Forecast

Advertisements
Track Severe Weather on mobile